-> Other stations

1455

Speed(max): 7(10.8)knots
Direction:136° ( SE)
Temperature: 15.5°C
Arrived: 2022-09-24 23:58:59 CEST

Past data:
hh:mmknots
Dir (°)
°C
23:56 5.9 8.6 SSE(151) 16.8
23:54 4.9 9.2 SE(140) 17.0
23:52 5.4 10.3 SE(139) 16.8
23:50 4.9 9.2 SSE(148) 17.1
23:48 5.9 10.8 SSE(149) 16.7
23:46 6.5 12.4 SE(132) 17.2
23:44 7.6 11.3 SSE(151) 17.3
23:42 7.6 11.3 SE(142) 17.3
23:40 7 11.3 SSE(152) 17.0
23:38 7 10.8 SE(144) 17.3
23:36 6.5 11.3 SE(139) 17.1
23:34 5.4 8.6 SE(140) 15.8
23:32 5.9 9.2 SE(131) 17.2
23:30 5.9 10.3 SE(132) 17.5
15 min. averages:
hh:mmknots
Dir (°)
°C
23:45 6.5 11.3 SE(141) 17.1
23:30 7 14 SE(143) 17.6
23:15 7 15.7 SE(139) 17.7
23:00 8.1 14.6 SE(137) 17.6
22:45 7 16.7 SE(143) 17.6
22:30 5.4 11.9 SE(135) 16.8
22:15 7.6 14.6 ESE(123) 16.8
22:00 6.5 11.3 ESE(121) 16.6
21:45 4.3 9.2 SE(135) 16.5
21:30 2.7 5.4 SE(137) 15.9
21:15 3.8 8.1 SE(139) 16.4
21:00 4.9 9.2 SE(146) 16.6
20:45 4.9 8.1 SE(143) 16.9
20:30 5.9 12.4 SE(141) 16.8
20:15 4.3 8.6 SSE(160) 16.6
Stations at HR:
1455
-> Other regions

Desktop view
Data provided by Holfuy.
© Holfuy Weather 2022